sensor_id;sensor_type;location;lat;lon;timestamp;pressure;altitude;pressure_sealevel;temperature;humidity
9935;BME280;5006;41.828;23.478;2023-04-08T00:00:45;90271.78;;;9.63;48.71
9935;BME280;5006;41.828;23.478;2023-04-08T00:01:50;90276.66;;;9.22;50.47
9935;BME280;5006;41.828;23.478;2023-04-08T00:02:56;90280.06;;;9.05;50.38
9935;BME280;5006;41.828;23.478;2023-04-08T00:04:01;90271.00;;;9.48;50.65
9935;BME280;5006;41.828;23.478;2023-04-08T00:05:07;90272.13;;;9.33;50.15
9935;BME280;5006;41.828;23.478;2023-04-08T00:06:12;90279.75;;;9.21;49.76
9935;BME280;5006;41.828;23.478;2023-04-08T00:07:18;90275.53;;;9.20;50.23
9935;BME280;5006;41.828;23.478;2023-04-08T00:08:24;90276.22;;;9.03;50.29
9935;BME280;5006;41.828;23.478;2023-04-08T00:09:29;90280.47;;;9.18;50.41
9935;BME280;5006;41.828;23.478;2023-04-08T00:10:34;90278.22;;;9.20;50.04
9935;BME280;5006;41.828;23.478;2023-04-08T00:11:40;90271.72;;;9.38;49.20
9935;BME280;5006;41.828;23.478;2023-04-08T00:12:46;90269.44;;;9.44;48.83
9935;BME280;5006;41.828;23.478;2023-04-08T00:13:52;90269.44;;;9.33;48.66
9935;BME280;5006;41.828;23.478;2023-04-08T00:14:57;90272.03;;;8.95;49.78
9935;BME280;5006;41.828;23.478;2023-04-08T00:16:03;90271.56;;;8.82;50.94
9935;BME280;5006;41.828;23.478;2023-04-08T00:17:08;90279.66;;;9.00;50.57
9935;BME280;5006;41.828;23.478;2023-04-08T00:18:14;90278.91;;;8.96;50.65
9935;BME280;5006;41.828;23.478;2023-04-08T00:19:19;90267.81;;;8.19;51.92
9935;BME280;5006;41.828;23.478;2023-04-08T00:20:24;90273.69;;;8.46;51.78
9935;BME280;5006;41.828;23.478;2023-04-08T00:21:29;90275.59;;;8.42;52.40
9935;BME280;5006;41.828;23.478;2023-04-08T00:22:35;90277.53;;;8.55;52.38
9935;BME280;5006;41.828;23.478;2023-04-08T00:23:42;90280.28;;;8.62;51.22
9935;BME280;5006;41.828;23.478;2023-04-08T00:24:46;90275.84;;;9.01;51.00
9935;BME280;5006;41.828;23.478;2023-04-08T00:25:52;90280.44;;;9.00;50.41
9935;BME280;5006;41.828;23.478;2023-04-08T00:26:57;90289.59;;;9.03;50.26
9935;BME280;5006;41.828;23.478;2023-04-08T00:28:02;90282.22;;;8.72;51.24
9935;BME280;5006;41.828;23.478;2023-04-08T00:29:07;90275.91;;;8.33;51.69
9935;BME280;5006;41.828;23.478;2023-04-08T00:30:13;90280.16;;;8.41;52.12
9935;BME280;5006;41.828;23.478;2023-04-08T00:31:18;90281.19;;;8.94;50.85
9935;BME280;5006;41.828;23.478;2023-04-08T00:32:24;90273.22;;;9.25;49.62
9935;BME280;5006;41.828;23.478;2023-04-08T00:33:30;90285.00;;;8.96;50.45
9935;BME280;5006;41.828;23.478;2023-04-08T00:34:35;90279.91;;;8.63;51.41
9935;BME280;5006;41.828;23.478;2023-04-08T00:35:40;90275.06;;;8.93;50.30
9935;BME280;5006;41.828;23.478;2023-04-08T00:36:46;90277.66;;;8.69;50.94
9935;BME280;5006;41.828;23.478;2023-04-08T00:37:51;90279.53;;;8.68;50.93
9935;BME280;5006;41.828;23.478;2023-04-08T00:38:58;90281.91;;;8.84;51.17
9935;BME280;5006;41.828;23.478;2023-04-08T00:40:04;90278.44;;;8.76;50.26
9935;BME280;5006;41.828;23.478;2023-04-08T00:41:09;90275.09;;;8.97;50.36
9935;BME280;5006;41.828;23.478;2023-04-08T00:42:14;90281.56;;;8.99;49.94
9935;BME280;5006;41.828;23.478;2023-04-08T00:43:20;90275.41;;;8.92;50.40
9935;BME280;5006;41.828;23.478;2023-04-08T00:44:25;90275.94;;;9.43;49.90
9935;BME280;5006;41.828;23.478;2023-04-08T00:45:32;90271.03;;;9.59;49.70
9935;BME280;5006;41.828;23.478;2023-04-08T00:46:39;90276.69;;;9.36;49.98
9935;BME280;5006;41.828;23.478;2023-04-08T00:47:43;90278.25;;;9.44;48.91
9935;BME280;5006;41.828;23.478;2023-04-08T00:48:50;90278.28;;;9.48;49.03
9935;BME280;5006;41.828;23.478;2023-04-08T00:49:54;90275.59;;;9.58;49.25
9935;BME280;5006;41.828;23.478;2023-04-08T00:51:00;90273.31;;;9.50;49.58
9935;BME280;5006;41.828;23.478;2023-04-08T00:52:05;90275.94;;;9.43;48.59
9935;BME280;5006;41.828;23.478;2023-04-08T00:53:10;90277.47;;;9.44;48.70
9935;BME280;5006;41.828;23.478;2023-04-08T00:54:18;90272.53;;;9.46;49.07
9935;BME280;5006;41.828;23.478;2023-04-08T00:55:24;90274.84;;;9.58;48.55
9935;BME280;5006;41.828;23.478;2023-04-08T00:56:28;90279.09;;;9.87;48.63
9935;BME280;5006;41.828;23.478;2023-04-08T00:57:34;90280.59;;;9.84;48.71
9935;BME280;5006;41.828;23.478;2023-04-08T00:58:39;90274.81;;;9.47;48.74
9935;BME280;5006;41.828;23.478;2023-04-08T00:59:45;90280.53;;;9.35;49.36
9935;BME280;5006;41.828;23.478;2023-04-08T01:00:54;90282.47;;;9.56;49.00
9935;BME280;5006;41.828;23.478;2023-04-08T01:02:10;90280.94;;;9.48;49.06
9935;BME280;5006;41.828;23.478;2023-04-08T01:03:20;90280.59;;;9.95;48.08
9935;BME280;5006;41.828;23.478;2023-04-08T01:04:34;90289.78;;;9.87;48.29
9935;BME280;5006;41.828;23.478;2023-04-08T01:05:52;90282.13;;;9.99;47.77
9935;BME280;5006;41.828;23.478;2023-04-08T01:07:07;90288.25;;;9.96;47.59
9935;BME280;5006;41.828;23.478;2023-04-08T01:08:16;90285.59;;;10.24;47.55
9935;BME280;5006;41.828;23.478;2023-04-08T01:09:24;90295.91;;;10.47;46.97
9935;BME280;5006;41.828;23.478;2023-04-08T01:10:34;90290.53;;;10.61;46.98
9935;BME280;5006;41.828;23.478;2023-04-08T01:11:42;90290.53;;;9.66;48.33
9935;BME280;5006;41.828;23.478;2023-04-08T01:12:52;90289.41;;;10.44;47.45
9935;BME280;5006;41.828;23.478;2023-04-08T01:14:00;90295.16;;;10.43;47.73
9935;BME280;5006;41.828;23.478;2023-04-08T01:15:10;90290.13;;;10.59;46.80
9935;BME280;5006;41.828;23.478;2023-04-08T01:16:17;90284.31;;;10.98;46.45
9935;BME280;5006;41.828;23.478;2023-04-08T01:17:23;90293.97;;;10.65;46.27
9935;BME280;5006;41.828;23.478;2023-04-08T01:18:29;90293.19;;;10.64;46.67
9935;BME280;5006;41.828;23.478;2023-04-08T01:19:38;90298.22;;;10.52;47.56
9935;BME280;5006;41.828;23.478;2023-04-08T01:20:45;90302.03;;;10.54;47.69
9935;BME280;5006;41.828;23.478;2023-04-08T01:21:50;90297.44;;;10.55;47.19
9935;BME280;5006;41.828;23.478;2023-04-08T01:23:08;90306.22;;;10.69;47.53
9935;BME280;5006;41.828;23.478;2023-04-08T01:24:18;90303.22;;;10.18;48.65
9935;BME280;5006;41.828;23.478;2023-04-08T01:25:30;90300.88;;;9.78;49.92
9935;BME280;5006;41.828;23.478;2023-04-08T01:26:37;90305.09;;;9.76;49.32
9935;BME280;5006;41.828;23.478;2023-04-08T01:27:43;90302.44;;;10.07;49.59
9935;BME280;5006;41.828;23.478;2023-04-08T01:28:50;90300.91;;;10.34;48.84
9935;BME280;5006;41.828;23.478;2023-04-08T01:29:57;90312.03;;;10.08;49.54
9935;BME280;5006;41.828;23.478;2023-04-08T01:31:02;90306.59;;;9.77;50.14
9935;BME280;5006;41.828;23.478;2023-04-08T01:32:08;90301.91;;;9.25;49.94
9935;BME280;5006;41.828;23.478;2023-04-08T01:33:16;90311.53;;;9.47;50.17
9935;BME280;5006;41.828;23.478;2023-04-08T01:34:24;90305.47;;;9.81;49.95
9935;BME280;5006;41.828;23.478;2023-04-08T01:35:29;90304.31;;;9.68;49.82
9935;BME280;5006;41.828;23.478;2023-04-08T01:36:36;90308.94;;;10.41;48.56
9935;BME280;5006;41.828;23.478;2023-04-08T01:37:44;90304.69;;;10.65;48.21
9935;BME280;5006;41.828;23.478;2023-04-08T01:38:51;90305.47;;;10.62;48.49
9935;BME280;5006;41.828;23.478;2023-04-08T01:39:56;90310.44;;;10.67;49.08
9935;BME280;5006;41.828;23.478;2023-04-08T01:41:04;90299.75;;;9.93;49.80
9935;BME280;5006;41.828;23.478;2023-04-08T01:42:11;90315.03;;;9.79;50.64
9935;BME280;5006;41.828;23.478;2023-04-08T01:43:18;90313.06;;;9.48;50.80
9935;BME280;5006;41.828;23.478;2023-04-08T01:44:23;90316.84;;;9.36;51.04
9935;BME280;5006;41.828;23.478;2023-04-08T01:45:30;90321.75;;;9.13;52.01
9935;BME280;5006;41.828;23.478;2023-04-08T01:46:34;90310.06;;;9.74;50.93
9935;BME280;5006;41.828;23.478;2023-04-08T01:47:42;90321.53;;;9.88;50.83
9935;BME280;5006;41.828;23.478;2023-04-08T01:48:49;90323.88;;;10.39;49.94
9935;BME280;5006;41.828;23.478;2023-04-08T01:49:56;90316.16;;;10.72;48.35
9935;BME280;5006;41.828;23.478;2023-04-08T01:51:04;90326.19;;;10.37;49.54
9935;BME280;5006;41.828;23.478;2023-04-08T01:52:10;90314.31;;;10.17;49.92
9935;BME280;5006;41.828;23.478;2023-04-08T01:53:16;90331.53;;;10.51;50.17
9935;BME280;5006;41.828;23.478;2023-04-08T01:54:22;90320.06;;;10.26;50.18
9935;BME280;5006;41.828;23.478;2023-04-08T01:55:26;90327.69;;;10.55;49.72
9935;BME280;5006;41.828;23.478;2023-04-08T01:56:36;90322.69;;;10.68;49.56
9935;BME280;5006;41.828;23.478;2023-04-08T01:57:48;90323.72;;;11.15;48.21
9935;BME280;5006;41.828;23.478;2023-04-08T01:58:57;90326.34;;;11.26;48.09
9935;BME280;5006;41.828;23.478;2023-04-08T02:00:06;90328.31;;;11.15;47.93
9935;BME280;5006;41.828;23.478;2023-04-08T02:01:26;90324.09;;;11.14;48.01
9935;BME280;5006;41.828;23.478;2023-04-08T02:02:35;90332.97;;;10.97;48.23
9935;BME280;5006;41.828;23.478;2023-04-08T02:03:43;90325.19;;;11.30;47.90
9935;BME280;5006;41.828;23.478;2023-04-08T02:04:52;90330.84;;;11.53;48.08
9935;BME280;5006;41.828;23.478;2023-04-08T02:05:56;90330.50;;;11.44;47.45
9935;BME280;5006;41.828;23.478;2023-04-08T02:07:03;90325.78;;;11.76;47.75
9935;BME280;5006;41.828;23.478;2023-04-08T02:08:07;90328.72;;;11.13;49.20
9935;BME280;5006;41.828;23.478;2023-04-08T02:09:13;90327.81;;;11.44;48.60
9935;BME280;5006;41.828;23.478;2023-04-08T02:10:17;90331.34;;;11.20;47.83
9935;BME280;5006;41.828;23.478;2023-04-08T02:11:23;90327.28;;;10.81;48.67
9935;BME280;5006;41.828;23.478;2023-04-08T02:12:29;90323.75;;;11.05;48.65
9935;BME280;5006;41.828;23.478;2023-04-08T02:13:36;90324.06;;;11.21;48.09
9935;BME280;5006;41.828;23.478;2023-04-08T02:14:41;90319.69;;;11.69;47.20
9935;BME280;5006;41.828;23.478;2023-04-08T02:15:51;90316.91;;;11.79;46.49
9935;BME280;5006;41.828;23.478;2023-04-08T02:17:04;90321.41;;;11.10;48.06
9935;BME280;5006;41.828;23.478;2023-04-08T02:18:15;90329.88;;;11.02;48.61
9935;BME280;5006;41.828;23.478;2023-04-08T02:19:26;90319.97;;;10.78;49.20
9935;BME280;5006;41.828;23.478;2023-04-08T02:20:36;90327.56;;;11.07;48.79
9935;BME280;5006;41.828;23.478;2023-04-08T02:21:44;90333.97;;;11.41;48.35
9935;BME280;5006;41.828;23.478;2023-04-08T02:22:56;90327.78;;;11.51;47.87
9935;BME280;5006;41.828;23.478;2023-04-08T02:24:04;90327.81;;;11.44;47.87
9935;BME280;5006;41.828;23.478;2023-04-08T02:25:14;90327.94;;;11.16;47.69
9935;BME280;5006;41.828;23.478;2023-04-08T02:26:20;90331.97;;;11.63;47.38
9935;BME280;5006;41.828;23.478;2023-04-08T02:27:28;90331.41;;;11.03;47.96
9935;BME280;5006;41.828;23.478;2023-04-08T02:28:39;90331.84;;;10.84;49.63
9935;BME280;5006;41.828;23.478;2023-04-08T02:29:46;90333.44;;;10.47;50.18
9935;BME280;5006;41.828;23.478;2023-04-08T02:30:53;90333.84;;;10.31;50.20
9935;BME280;5006;41.828;23.478;2023-04-08T02:32:00;90325.28;;;10.99;49.07
9935;BME280;5006;41.828;23.478;2023-04-08T02:33:06;90323.00;;;11.01;48.21
9935;BME280;5006;41.828;23.478;2023-04-08T02:34:13;90317.56;;;11.22;47.76
9935;BME280;5006;41.828;23.478;2023-04-08T02:35:19;90323.41;;;10.96;48.84
9935;BME280;5006;41.828;23.478;2023-04-08T02:36:25;90323.53;;;11.61;47.79
9935;BME280;5006;41.828;23.478;2023-04-08T02:37:30;90334.75;;;11.38;48.80
9935;BME280;5006;41.828;23.478;2023-04-08T02:38:36;90324.34;;;11.58;48.49
9935;BME280;5006;41.828;23.478;2023-04-08T02:39:41;90320.69;;;11.89;47.31
9935;BME280;5006;41.828;23.478;2023-04-08T02:40:49;90323.13;;;11.69;47.15
9935;BME280;5006;41.828;23.478;2023-04-08T02:41:54;90322.25;;;10.97;47.93
9935;BME280;5006;41.828;23.478;2023-04-08T02:43:00;90318.44;;;10.84;48.49
9935;BME280;5006;41.828;23.478;2023-04-08T02:44:06;90322.88;;;11.32;48.01
9935;BME280;5006;41.828;23.478;2023-04-08T02:45:14;90328.94;;;11.57;46.99
9935;BME280;5006;41.828;23.478;2023-04-08T02:46:19;90318.22;;;11.43;46.83
9935;BME280;5006;41.828;23.478;2023-04-08T02:47:25;90320.91;;;11.40;47.22
9935;BME280;5006;41.828;23.478;2023-04-08T02:48:30;90320.06;;;11.67;47.78
9935;BME280;5006;41.828;23.478;2023-04-08T02:49:36;90317.78;;;11.52;47.83
9935;BME280;5006;41.828;23.478;2023-04-08T02:50:40;90318.56;;;11.52;48.50
9935;BME280;5006;41.828;23.478;2023-04-08T02:51:46;90317.31;;;11.74;47.66
9935;BME280;5006;41.828;23.478;2023-04-08T02:52:51;90321.16;;;11.73;48.46
9935;BME280;5006;41.828;23.478;2023-04-08T02:53:56;90321.69;;;11.40;48.73
9935;BME280;5006;41.828;23.478;2023-04-08T02:55:03;90320.53;;;11.45;48.53
9935;BME280;5006;41.828;23.478;2023-04-08T02:56:09;90314.47;;;11.23;48.70
9935;BME280;5006;41.828;23.478;2023-04-08T02:57:15;90318.31;;;11.22;48.85
9935;BME280;5006;41.828;23.478;2023-04-08T02:58:21;90318.09;;;11.71;47.64
9935;BME280;5006;41.828;23.478;2023-04-08T02:59:27;90327.22;;;11.88;47.04
9935;BME280;5006;41.828;23.478;2023-04-08T03:00:32;90319.69;;;11.55;47.34
9935;BME280;5006;41.828;23.478;2023-04-08T03:01:38;90321.72;;;11.37;47.62
9935;BME280;5006;41.828;23.478;2023-04-08T03:02:42;90329.75;;;11.40;47.43
9935;BME280;5006;41.828;23.478;2023-04-08T03:03:48;90326.06;;;11.92;46.83
9935;BME280;5006;41.828;23.478;2023-04-08T03:04:53;90328.41;;;11.83;46.69
9935;BME280;5006;41.828;23.478;2023-04-08T03:05:59;90325.06;;;11.65;47.46
9935;BME280;5006;41.828;23.478;2023-04-08T03:07:04;90323.97;;;11.49;47.75
9935;BME280;5006;41.828;23.478;2023-04-08T03:08:10;90317.72;;;11.73;47.29
9935;BME280;5006;41.828;23.478;2023-04-08T03:09:14;90321.03;;;11.94;47.21
9935;BME280;5006;41.828;23.478;2023-04-08T03:10:20;90323.50;;;11.68;48.26
9935;BME280;5006;41.828;23.478;2023-04-08T03:11:24;90319.03;;;11.37;48.37
9935;BME280;5006;41.828;23.478;2023-04-08T03:12:30;90323.31;;;11.99;47.83
9935;BME280;5006;41.828;23.478;2023-04-08T03:13:34;90316.38;;;12.02;47.63
9935;BME280;5006;41.828;23.478;2023-04-08T03:14:41;90318.53;;;11.66;47.85
9935;BME280;5006;41.828;23.478;2023-04-08T03:15:46;90318.91;;;11.68;48.17
9935;BME280;5006;41.828;23.478;2023-04-08T03:16:52;90315.03;;;11.76;47.88
9935;BME280;5006;41.828;23.478;2023-04-08T03:17:57;90313.50;;;11.75;48.05
9935;BME280;5006;41.828;23.478;2023-04-08T03:19:02;90321.13;;;11.80;47.16
9935;BME280;5006;41.828;23.478;2023-04-08T03:20:07;90316.63;;;11.63;47.67
9935;BME280;5006;41.828;23.478;2023-04-08T03:21:13;90311.69;;;11.51;47.77
9935;BME280;5006;41.828;23.478;2023-04-08T03:22:19;90315.69;;;11.87;47.02
9935;BME280;5006;41.828;23.478;2023-04-08T03:23:23;90316.22;;;11.65;48.04
9935;BME280;5006;41.828;23.478;2023-04-08T03:24:30;90313.00;;;11.87;47.20
9935;BME280;5006;41.828;23.478;2023-04-08T03:25:34;90321.78;;;11.98;46.85
9935;BME280;5006;41.828;23.478;2023-04-08T03:26:40;90321.25;;;11.59;48.38
9935;BME280;5006;41.828;23.478;2023-04-08T03:27:44;90318.91;;;11.61;48.20
9935;BME280;5006;41.828;23.478;2023-04-08T03:28:51;90323.59;;;11.43;48.62
9935;BME280;5006;41.828;23.478;2023-04-08T03:29:57;90326.66;;;11.42;48.80
9935;BME280;5006;41.828;23.478;2023-04-08T03:31:04;90327.91;;;11.20;48.47
9935;BME280;5006;41.828;23.478;2023-04-08T03:32:10;90324.19;;;11.79;47.45
9935;BME280;5006;41.828;23.478;2023-04-08T03:33:15;90330.38;;;11.72;47.39
9935;BME280;5006;41.828;23.478;2023-04-08T03:34:22;90333.53;;;11.50;48.27
9935;BME280;5006;41.828;23.478;2023-04-08T03:35:26;90334.16;;;11.85;47.34
9935;BME280;5006;41.828;23.478;2023-04-08T03:36:32;90332.94;;;11.97;47.94
9935;BME280;5006;41.828;23.478;2023-04-08T03:37:38;90333.59;;;11.39;48.74
9935;BME280;5006;41.828;23.478;2023-04-08T03:38:43;90331.59;;;11.61;48.13
9935;BME280;5006;41.828;23.478;2023-04-08T03:39:49;90334.69;;;11.52;48.59
9935;BME280;5006;41.828;23.478;2023-04-08T03:40:54;90330.13;;;11.42;48.79
9935;BME280;5006;41.828;23.478;2023-04-08T03:41:59;90323.31;;;11.20;49.23
9935;BME280;5006;41.828;23.478;2023-04-08T03:43:04;90327.94;;;11.16;49.04
9935;BME280;5006;41.828;23.478;2023-04-08T03:44:12;90328.97;;;11.40;48.32
9935;BME280;5006;41.828;23.478;2023-04-08T03:45:18;90333.13;;;11.55;48.21
9935;BME280;5006;41.828;23.478;2023-04-08T03:46:23;90336.59;;;11.52;48.59
9935;BME280;5006;41.828;23.478;2023-04-08T03:47:29;90337.34;;;11.59;48.00
9935;BME280;5006;41.828;23.478;2023-04-08T03:48:35;90333.50;;;11.64;47.43
9935;BME280;5006;41.828;23.478;2023-04-08T03:49:39;90338.53;;;11.48;48.36
9935;BME280;5006;41.828;23.478;2023-04-08T03:50:45;90337.63;;;11.82;47.90
9935;BME280;5006;41.828;23.478;2023-04-08T03:51:49;90338.84;;;11.71;47.65
9935;BME280;5006;41.828;23.478;2023-04-08T03:52:55;90334.53;;;10.87;49.48
9935;BME280;5006;41.828;23.478;2023-04-08T03:53:59;90342.09;;;11.17;49.12
9935;BME280;5006;41.828;23.478;2023-04-08T03:55:05;90340.97;;;11.07;49.26
9935;BME280;5006;41.828;23.478;2023-04-08T03:56:11;90343.69;;;10.97;48.99
9935;BME280;5006;41.828;23.478;2023-04-08T03:57:17;90343.72;;;10.90;49.39
9935;BME280;5006;41.828;23.478;2023-04-08T03:58:21;90338.41;;;10.48;50.33
9935;BME280;5006;41.828;23.478;2023-04-08T03:59:27;90343.75;;;10.62;50.25
9935;BME280;5006;41.828;23.478;2023-04-08T04:00:34;90335.38;;;10.29;50.91
9935;BME280;5006;41.828;23.478;2023-04-08T04:01:40;90337.66;;;10.48;50.36
9935;BME280;5006;41.828;23.478;2023-04-08T04:02:44;90347.59;;;10.44;50.90
9935;BME280;5006;41.828;23.478;2023-04-08T04:03:50;90335.63;;;11.04;50.32
9935;BME280;5006;41.828;23.478;2023-04-08T04:04:55;90337.44;;;11.38;49.26
9935;BME280;5006;41.828;23.478;2023-04-08T04:06:01;90342.03;;;11.41;49.27
9935;BME280;5006;41.828;23.478;2023-04-08T04:07:06;90336.66;;;11.38;49.35
9935;BME280;5006;41.828;23.478;2023-04-08T04:08:12;90332.00;;;11.49;49.15
9935;BME280;5006;41.828;23.478;2023-04-08T04:09:17;90335.91;;;11.37;48.87
9935;BME280;5006;41.828;23.478;2023-04-08T04:10:22;90337.91;;;11.12;49.21
9935;BME280;5006;41.828;23.478;2023-04-08T04:11:27;90332.22;;;10.79;50.15
9935;BME280;5006;41.828;23.478;2023-04-08T04:12:32;90344.13;;;10.88;50.23
9935;BME280;5006;41.828;23.478;2023-04-08T04:13:38;90338.97;;;11.32;49.70
9935;BME280;5006;41.828;23.478;2023-04-08T04:14:43;90345.47;;;11.42;49.29
9935;BME280;5006;41.828;23.478;2023-04-08T04:15:49;90342.53;;;11.94;48.05
9935;BME280;5006;41.828;23.478;2023-04-08T04:16:54;90336.16;;;11.71;48.47
9935;BME280;5006;41.828;23.478;2023-04-08T04:18:00;90335.88;;;11.44;48.47
9935;BME280;5006;41.828;23.478;2023-04-08T04:19:04;90340.38;;;11.72;48.39
9935;BME280;5006;41.828;23.478;2023-04-08T04:20:10;90341.25;;;11.41;48.61
9935;BME280;5006;41.828;23.478;2023-04-08T04:21:15;90344.25;;;11.60;48.27
9935;BME280;5006;41.828;23.478;2023-04-08T04:22:21;90340.81;;;11.53;48.95
9935;BME280;5006;41.828;23.478;2023-04-08T04:23:27;90339.13;;;10.83;50.50
9935;BME280;5006;41.828;23.478;2023-04-08T04:24:33;90338.72;;;11.06;50.11
9935;BME280;5006;41.828;23.478;2023-04-08T04:25:40;90337.25;;;10.63;50.59
9935;BME280;5006;41.828;23.478;2023-04-08T04:26:46;90334.47;;;11.12;50.23
9935;BME280;5006;41.828;23.478;2023-04-08T04:27:51;90343.38;;;10.01;52.18
9935;BME280;5006;41.828;23.478;2023-04-08T04:28:57;90343.72;;;9.64;52.96
9935;BME280;5006;41.828;23.478;2023-04-08T04:30:02;90343.38;;;9.90;52.29
9935;BME280;5006;41.828;23.478;2023-04-08T04:31:18;90342.22;;;10.58;50.98
9935;BME280;5006;41.828;23.478;2023-04-08T04:32:24;90347.25;;;10.45;50.61
9935;BME280;5006;41.828;23.478;2023-04-08T04:33:30;90343.28;;;11.05;49.70
9935;BME280;5006;41.828;23.478;2023-04-08T04:34:36;90343.00;;;10.62;49.85
9935;BME280;5006;41.828;23.478;2023-04-08T04:35:42;90336.09;;;9.94;51.63
9935;BME280;5006;41.828;23.478;2023-04-08T04:36:47;90336.81;;;9.67;52.56
9935;BME280;5006;41.828;23.478;2023-04-08T04:37:53;90336.53;;;10.49;51.42
9935;BME280;5006;41.828;23.478;2023-04-08T04:38:58;90337.16;;;11.08;49.66
9935;BME280;5006;41.828;23.478;2023-04-08T04:40:05;90341.72;;;11.18;49.80
9935;BME280;5006;41.828;23.478;2023-04-08T04:41:11;90348.28;;;11.03;49.97
9935;BME280;5006;41.828;23.478;2023-04-08T04:42:17;90338.34;;;10.90;49.84
9935;BME280;5006;41.828;23.478;2023-04-08T04:43:22;90345.69;;;10.37;50.78
9935;BME280;5006;41.828;23.478;2023-04-08T04:44:28;90344.56;;;10.24;51.33
9935;BME280;5006;41.828;23.478;2023-04-08T04:45:33;90344.19;;;10.12;51.50
9935;BME280;5006;41.828;23.478;2023-04-08T04:46:40;90345.31;;;10.39;51.42
9935;BME280;5006;41.828;23.478;2023-04-08T04:47:46;90345.56;;;9.39;52.77
9935;BME280;5006;41.828;23.478;2023-04-08T04:48:52;90341.88;;;10.24;51.54
9935;BME280;5006;41.828;23.478;2023-04-08T04:49:57;90339.53;;;9.91;51.12
9935;BME280;5006;41.828;23.478;2023-04-08T04:51:04;90340.66;;;9.80;51.85
9935;BME280;5006;41.828;23.478;2023-04-08T04:52:11;90336.91;;;10.19;51.35
9935;BME280;5006;41.828;23.478;2023-04-08T04:53:17;90345.63;;;10.79;50.41
9935;BME280;5006;41.828;23.478;2023-04-08T04:54:22;90345.22;;;11.01;49.77
9935;BME280;5006;41.828;23.478;2023-04-08T04:55:29;90356.03;;;10.56;50.56
9935;BME280;5006;41.828;23.478;2023-04-08T04:56:35;90349.91;;;10.52;50.86
9935;BME280;5006;41.828;23.478;2023-04-08T04:57:41;90353.59;;;11.24;49.37
9935;BME280;5006;41.828;23.478;2023-04-08T04:58:48;90346.72;;;11.09;48.98
9935;BME280;5006;41.828;23.478;2023-04-08T04:59:54;90340.66;;;10.91;50.18
9935;BME280;5006;41.828;23.478;2023-04-08T05:01:00;90347.91;;;10.94;49.88
9935;BME280;5006;41.828;23.478;2023-04-08T05:02:08;90349.03;;;11.14;48.99
9935;BME280;5006;41.828;23.478;2023-04-08T05:03:13;90346.66;;;11.27;48.50
9935;BME280;5006;41.828;23.478;2023-04-08T05:04:20;90347.53;;;10.99;48.97
9935;BME280;5006;41.828;23.478;2023-04-08T05:05:25;90357.41;;;11.23;49.14
9935;BME280;5006;41.828;23.478;2023-04-08T05:06:31;90353.69;;;10.86;49.07
9935;BME280;5006;41.828;23.478;2023-04-08T05:07:38;90352.88;;;11.03;48.83
9935;BME280;5006;41.828;23.478;2023-04-08T05:08:43;90342.19;;;10.92;48.54
9935;BME280;5006;41.828;23.478;2023-04-08T05:09:49;90351.34;;;11.12;48.91
9935;BME280;5006;41.828;23.478;2023-04-08T05:10:54;90348.72;;;10.74;49.26
9935;BME280;5006;41.828;23.478;2023-04-08T05:12:00;90347.19;;;10.76;49.54
9935;BME280;5006;41.828;23.478;2023-04-08T05:13:05;90342.63;;;10.49;49.94
9935;BME280;5006;41.828;23.478;2023-04-08T05:14:11;90341.09;;;10.06;51.06
9935;BME280;5006;41.828;23.478;2023-04-08T05:15:17;90354.13;;;10.39;50.88
9935;BME280;5006;41.828;23.478;2023-04-08T05:16:23;90352.59;;;10.38;50.95
9935;BME280;5006;41.828;23.478;2023-04-08T05:17:31;90346.09;;;10.36;51.49
9935;BME280;5006;41.828;23.478;2023-04-08T05:18:37;90346.84;;;10.54;51.12
9935;BME280;5006;41.828;23.478;2023-04-08T05:19:42;90346.06;;;10.60;50.80
9935;BME280;5006;41.828;23.478;2023-04-08T05:20:48;90356.00;;;10.60;50.68
9935;BME280;5006;41.828;23.478;2023-04-08T05:21:53;90349.50;;;10.64;50.76
9935;BME280;5006;41.828;23.478;2023-04-08T05:23:00;90343.34;;;10.88;50.57
9935;BME280;5006;41.828;23.478;2023-04-08T05:24:05;90346.75;;;10.99;50.15
9935;BME280;5006;41.828;23.478;2023-04-08T05:25:12;90346.00;;;10.98;49.94
9935;BME280;5006;41.828;23.478;2023-04-08T05:26:17;90349.84;;;10.94;49.84
9935;BME280;5006;41.828;23.478;2023-04-08T05:27:24;90355.06;;;11.39;49.08
9935;BME280;5006;41.828;23.478;2023-04-08T05:28:30;90354.72;;;11.37;49.42
9935;BME280;5006;41.828;23.478;2023-04-08T05:29:36;90346.00;;;10.91;50.02
9935;BME280;5006;41.828;23.478;2023-04-08T05:30:41;90357.41;;;11.27;49.91
9935;BME280;5006;41.828;23.478;2023-04-08T05:31:47;90354.47;;;11.86;48.14
9935;BME280;5006;41.828;23.478;2023-04-08T05:32:53;90350.03;;;11.48;48.21
9935;BME280;5006;41.828;23.478;2023-04-08T05:34:00;90348.19;;;12.14;47.51
9935;BME280;5006;41.828;23.478;2023-04-08T05:35:06;90349.53;;;11.81;46.89
9935;BME280;5006;41.828;23.478;2023-04-08T05:36:13;90346.66;;;11.37;47.79
9935;BME280;5006;41.828;23.478;2023-04-08T05:37:19;90342.22;;;10.85;48.95
9935;BME280;5006;41.828;23.478;2023-04-08T05:38:26;90353.25;;;11.08;48.88
9935;BME280;5006;41.828;23.478;2023-04-08T05:39:31;90345.03;;;11.61;47.74
9935;BME280;5006;41.828;23.478;2023-04-08T05:40:37;90348.50;;;11.58;47.98
9935;BME280;5006;41.828;23.478;2023-04-08T05:41:42;90332.59;;;10.84;49.39
9935;BME280;5006;41.828;23.478;2023-04-08T05:42:48;90342.09;;;11.20;49.21
9935;BME280;5006;41.828;23.478;2023-04-08T05:43:53;90346.97;;;11.46;48.30
9935;BME280;5006;41.828;23.478;2023-04-08T05:45:03;90344.25;;;12.25;47.16
9935;BME280;5006;41.828;23.478;2023-04-08T05:46:09;90346.69;;;12.57;46.10
9935;BME280;5006;41.828;23.478;2023-04-08T05:47:15;90346.75;;;12.53;46.09
9935;BME280;5006;41.828;23.478;2023-04-08T05:48:21;90345.31;;;11.80;47.40
9935;BME280;5006;41.828;23.478;2023-04-08T05:49:28;90338.28;;;11.18;48.81
9935;BME280;5006;41.828;23.478;2023-04-08T05:50:34;90339.75;;;11.29;48.45
9935;BME280;5006;41.828;23.478;2023-04-08T05:51:40;90341.75;;;11.11;48.87
9935;BME280;5006;41.828;23.478;2023-04-08T05:52:45;90342.47;;;11.22;48.88
9935;BME280;5006;41.828;23.478;2023-04-08T05:53:51;90346.47;;;11.83;47.26
9935;BME280;5006;41.828;23.478;2023-04-08T05:54:56;90350.97;;;12.54;46.83
9935;BME280;5006;41.828;23.478;2023-04-08T05:56:02;90350.41;;;12.22;47.03
9935;BME280;5006;41.828;23.478;2023-04-08T05:57:07;90343.13;;;11.47;47.96
9935;BME280;5006;41.828;23.478;2023-04-08T05:58:13;90350.34;;;11.71;48.00